sensor_id;sensor_type;location;lat;lon;timestamp;P1;durP1;ratioP1;P2;durP2;ratioP2
36441;SDS011;73131;50.820;16.274;2024-03-23T00:52:19;11.27;;;6.55;;
36441;SDS011;73131;50.820;16.274;2024-03-23T00:55:20;15.48;;;8.10;;
36441;SDS011;73131;50.820;16.274;2024-03-23T00:58:21;13.30;;;7.25;;
36441;SDS011;73131;50.820;16.274;2024-03-23T01:01:22;16.65;;;7.97;;
36441;SDS011;73131;50.820;16.274;2024-03-23T01:04:23;14.85;;;7.88;;
36441;SDS011;73131;50.820;16.274;2024-03-23T01:07:24;12.68;;;7.60;;
36441;SDS011;73131;50.820;16.274;2024-03-23T01:10:25;15.27;;;7.47;;
36441;SDS011;73131;50.820;16.274;2024-03-23T01:13:26;13.85;;;7.60;;
36441;SDS011;73131;50.820;16.274;2024-03-23T01:16:30;12.27;;;7.30;;
36441;SDS011;73131;50.820;16.274;2024-03-23T01:19:33;12.40;;;7.30;;
36441;SDS011;73131;50.820;16.274;2024-03-23T01:22:34;15.20;;;7.82;;
36441;SDS011;73131;50.820;16.274;2024-03-23T01:25:35;12.60;;;7.50;;
36441;SDS011;73131;50.820;16.274;2024-03-23T01:28:38;14.55;;;7.10;;
36441;SDS011;73131;50.820;16.274;2024-03-23T01:31:40;13.48;;;7.53;;
36441;SDS011;73131;50.820;16.274;2024-03-23T01:34:45;10.65;;;6.30;;
36441;SDS011;73131;50.820;16.274;2024-03-23T01:37:46;11.73;;;7.28;;
36441;SDS011;73131;50.820;16.274;2024-03-23T01:40:56;13.27;;;7.30;;
36441;SDS011;73131;50.820;16.274;2024-03-23T01:43:58;14.02;;;7.68;;
36441;SDS011;73131;50.820;16.274;2024-03-23T01:47:06;15.13;;;7.57;;
36441;SDS011;73131;50.820;16.274;2024-03-23T01:50:07;13.13;;;7.55;;
36441;SDS011;73131;50.820;16.274;2024-03-23T01:53:08;15.32;;;8.30;;
36441;SDS011;73131;50.820;16.274;2024-03-23T01:56:10;13.73;;;8.02;;
36441;SDS011;73131;50.820;16.274;2024-03-23T01:59:11;14.27;;;8.55;;
36441;SDS011;73131;50.820;16.274;2024-03-23T02:02:15;16.17;;;8.38;;
36441;SDS011;73131;50.820;16.274;2024-03-23T02:05:17;15.48;;;8.80;;
36441;SDS011;73131;50.820;16.274;2024-03-23T02:08:20;17.60;;;8.27;;
36441;SDS011;73131;50.820;16.274;2024-03-23T02:11:24;14.88;;;8.00;;
36441;SDS011;73131;50.820;16.274;2024-03-23T02:14:25;15.63;;;8.15;;
36441;SDS011;73131;50.820;16.274;2024-03-23T02:17:27;14.32;;;8.35;;
36441;SDS011;73131;50.820;16.274;2024-03-23T02:20:31;15.27;;;8.45;;
36441;SDS011;73131;50.820;16.274;2024-03-23T02:23:32;17.83;;;9.50;;
36441;SDS011;73131;50.820;16.274;2024-03-23T02:26:33;18.55;;;10.23;;
36441;SDS011;73131;50.820;16.274;2024-03-23T02:29:34;18.48;;;10.00;;
36441;SDS011;73131;50.820;16.274;2024-03-23T02:32:35;19.10;;;9.68;;
36441;SDS011;73131;50.820;16.274;2024-03-23T02:35:36;16.38;;;9.52;;
36441;SDS011;73131;50.820;16.274;2024-03-23T02:38:37;19.45;;;9.93;;
36441;SDS011;73131;50.820;16.274;2024-03-23T02:41:38;24.83;;;12.57;;
36441;SDS011;73131;50.820;16.274;2024-03-23T02:44:39;18.88;;;9.13;;
36441;SDS011;73131;50.820;16.274;2024-03-23T02:47:40;16.42;;;8.10;;
36441;SDS011;73131;50.820;16.274;2024-03-23T02:50:41;17.75;;;9.63;;
36441;SDS011;73131;50.820;16.274;2024-03-23T02:53:42;16.05;;;9.45;;
36441;SDS011;73131;50.820;16.274;2024-03-23T02:56:45;15.30;;;8.73;;
36441;SDS011;73131;50.820;16.274;2024-03-23T02:59:46;18.30;;;9.75;;
36441;SDS011;73131;50.820;16.274;2024-03-23T03:02:50;15.20;;;8.80;;
36441;SDS011;73131;50.820;16.274;2024-03-23T03:05:59;15.32;;;8.68;;
36441;SDS011;73131;50.820;16.274;2024-03-23T03:09:02;16.20;;;9.60;;
36441;SDS011;73131;50.820;16.274;2024-03-23T03:12:03;16.38;;;9.30;;
36441;SDS011;73131;50.820;16.274;2024-03-23T03:18:09;18.08;;;9.98;;
36441;SDS011;73131;50.820;16.274;2024-03-23T03:21:10;16.25;;;8.52;;
36441;SDS011;73131;50.820;16.274;2024-03-23T03:24:11;17.77;;;10.25;;
36441;SDS011;73131;50.820;16.274;2024-03-23T03:27:12;16.48;;;8.65;;
36441;SDS011;73131;50.820;16.274;2024-03-23T03:30:18;17.40;;;10.05;;
36441;SDS011;73131;50.820;16.274;2024-03-23T03:33:19;16.27;;;9.07;;
36441;SDS011;73131;50.820;16.274;2024-03-23T03:36:20;14.57;;;8.57;;
36441;SDS011;73131;50.820;16.274;2024-03-23T03:39:21;16.13;;;9.00;;
36441;SDS011;73131;50.820;16.274;2024-03-23T03:42:22;21.90;;;9.77;;
36441;SDS011;73131;50.820;16.274;2024-03-23T03:45:24;16.52;;;9.27;;
36441;SDS011;73131;50.820;16.274;2024-03-23T03:48:24;16.45;;;8.90;;
36441;SDS011;73131;50.820;16.274;2024-03-23T03:51:26;15.55;;;8.27;;
36441;SDS011;73131;50.820;16.274;2024-03-23T03:54:29;16.10;;;8.25;;
36441;SDS011;73131;50.820;16.274;2024-03-23T03:57:33;13.07;;;8.02;;
36441;SDS011;73131;50.820;16.274;2024-03-23T04:00:36;15.63;;;8.05;;
36441;SDS011;73131;50.820;16.274;2024-03-23T04:03:37;14.73;;;7.65;;
36441;SDS011;73131;50.820;16.274;2024-03-23T04:06:43;14.65;;;9.25;;
36441;SDS011;73131;50.820;16.274;2024-03-23T04:09:44;16.17;;;8.80;;
36441;SDS011;73131;50.820;16.274;2024-03-23T04:12:50;12.85;;;8.23;;
36441;SDS011;73131;50.820;16.274;2024-03-23T04:15:54;16.55;;;8.45;;
36441;SDS011;73131;50.820;16.274;2024-03-23T04:18:56;13.75;;;8.70;;
36441;SDS011;73131;50.820;16.274;2024-03-23T04:21:57;16.58;;;8.40;;
36441;SDS011;73131;50.820;16.274;2024-03-23T04:24:58;14.52;;;8.27;;
36441;SDS011;73131;50.820;16.274;2024-03-23T04:27:59;15.43;;;8.45;;
36441;SDS011;73131;50.820;16.274;2024-03-23T04:31:03;14.63;;;8.30;;
36441;SDS011;73131;50.820;16.274;2024-03-23T04:34:05;12.77;;;7.75;;
36441;SDS011;73131;50.820;16.274;2024-03-23T04:37:05;14.13;;;8.07;;
36441;SDS011;73131;50.820;16.274;2024-03-23T04:40:09;13.07;;;7.75;;
36441;SDS011;73131;50.820;16.274;2024-03-23T04:46:14;13.40;;;7.13;;
36441;SDS011;73131;50.820;16.274;2024-03-23T04:49:15;12.50;;;7.50;;
36441;SDS011;73131;50.820;16.274;2024-03-23T04:52:17;13.20;;;8.30;;
36441;SDS011;73131;50.820;16.274;2024-03-23T04:55:20;16.83;;;8.25;;
36441;SDS011;73131;50.820;16.274;2024-03-23T04:58:23;13.65;;;8.15;;
36441;SDS011;73131;50.820;16.274;2024-03-23T05:01:23;14.50;;;7.25;;
36441;SDS011;73131;50.820;16.274;2024-03-23T05:04:25;12.88;;;7.22;;
36441;SDS011;73131;50.820;16.274;2024-03-23T05:07:26;13.45;;;7.90;;
36441;SDS011;73131;50.820;16.274;2024-03-23T05:10:27;14.68;;;9.07;;
36441;SDS011;73131;50.820;16.274;2024-03-23T05:13:30;10.60;;;6.80;;
36441;SDS011;73131;50.820;16.274;2024-03-23T05:16:31;13.50;;;7.85;;
36441;SDS011;73131;50.820;16.274;2024-03-23T05:19:32;14.10;;;7.65;;
36441;SDS011;73131;50.820;16.274;2024-03-23T05:22:33;14.35;;;7.50;;
36441;SDS011;73131;50.820;16.274;2024-03-23T05:25:34;13.43;;;7.85;;
36441;SDS011;73131;50.820;16.274;2024-03-23T05:28:35;12.43;;;7.32;;
36441;SDS011;73131;50.820;16.274;2024-03-23T05:31:36;13.00;;;8.15;;
36441;SDS011;73131;50.820;16.274;2024-03-23T05:34:38;11.05;;;7.07;;
36441;SDS011;73131;50.820;16.274;2024-03-23T05:37:41;20.73;;;11.02;;
36441;SDS011;73131;50.820;16.274;2024-03-23T05:40:52;17.60;;;9.38;;
36441;SDS011;73131;50.820;16.274;2024-03-23T05:44:00;22.60;;;12.00;;
36441;SDS011;73131;50.820;16.274;2024-03-23T05:47:01;24.83;;;12.40;;
36441;SDS011;73131;50.820;16.274;2024-03-23T05:50:02;13.25;;;8.10;;
36441;SDS011;73131;50.820;16.274;2024-03-23T05:53:08;13.35;;;7.07;;
36441;SDS011;73131;50.820;16.274;2024-03-23T05:56:09;14.27;;;8.10;;
36441;SDS011;73131;50.820;16.274;2024-03-23T05:59:10;13.85;;;8.00;;
36441;SDS011;73131;50.820;16.274;2024-03-23T06:02:11;15.68;;;8.57;;
36441;SDS011;73131;50.820;16.274;2024-03-23T06:05:12;18.00;;;8.50;;
36441;SDS011;73131;50.820;16.274;2024-03-23T06:08:18;13.38;;;8.20;;
36441;SDS011;73131;50.820;16.274;2024-03-23T06:11:21;14.38;;;8.20;;
36441;SDS011;73131;50.820;16.274;2024-03-23T06:14:26;12.45;;;8.15;;
36441;SDS011;73131;50.820;16.274;2024-03-23T06:17:28;14.57;;;8.50;;
36441;SDS011;73131;50.820;16.274;2024-03-23T06:20:28;16.80;;;9.18;;
36441;SDS011;73131;50.820;16.274;2024-03-23T06:23:30;15.63;;;9.48;;
36441;SDS011;73131;50.820;16.274;2024-03-23T06:26:33;18.58;;;11.00;;
36441;SDS011;73131;50.820;16.274;2024-03-23T06:29:34;17.92;;;10.77;;
36441;SDS011;73131;50.820;16.274;2024-03-23T06:32:36;20.55;;;12.05;;
36441;SDS011;73131;50.820;16.274;2024-03-23T06:35:40;21.85;;;12.15;;
36441;SDS011;73131;50.820;16.274;2024-03-23T06:38:43;19.27;;;10.25;;
36441;SDS011;73131;50.820;16.274;2024-03-23T06:44:52;14.65;;;7.55;;
36441;SDS011;73131;50.820;16.274;2024-03-23T06:47:55;11.35;;;7.40;;
36441;SDS011;73131;50.820;16.274;2024-03-23T06:50:57;11.20;;;7.45;;
36441;SDS011;73131;50.820;16.274;2024-03-23T06:53:59;12.30;;;8.55;;
36441;SDS011;73131;50.820;16.274;2024-03-23T06:56:59;15.68;;;9.68;;
36441;SDS011;73131;50.820;16.274;2024-03-23T07:00:03;12.32;;;9.20;;
36441;SDS011;73131;50.820;16.274;2024-03-23T07:03:07;14.32;;;9.70;;
36441;SDS011;73131;50.820;16.274;2024-03-23T07:06:09;14.25;;;10.15;;
36441;SDS011;73131;50.820;16.274;2024-03-23T07:09:11;13.25;;;9.95;;
36441;SDS011;73131;50.820;16.274;2024-03-23T07:12:17;11.98;;;8.93;;
36441;SDS011;73131;50.820;16.274;2024-03-23T07:15:18;15.05;;;8.30;;
36441;SDS011;73131;50.820;16.274;2024-03-23T07:18:19;11.98;;;9.48;;
36441;SDS011;73131;50.820;16.274;2024-03-23T07:21:19;13.85;;;9.02;;
36441;SDS011;73131;50.820;16.274;2024-03-23T07:24:23;13.35;;;8.48;;
36441;SDS011;73131;50.820;16.274;2024-03-23T07:27:31;12.50;;;7.85;;
36441;SDS011;73131;50.820;16.274;2024-03-23T07:30:32;12.82;;;7.93;;
36441;SDS011;73131;50.820;16.274;2024-03-23T07:33:36;13.40;;;7.95;;
36441;SDS011;73131;50.820;16.274;2024-03-23T07:36:38;11.13;;;6.63;;
36441;SDS011;73131;50.820;16.274;2024-03-23T07:39:39;9.98;;;6.80;;
36441;SDS011;73131;50.820;16.274;2024-03-23T07:42:40;11.18;;;6.88;;
36441;SDS011;73131;50.820;16.274;2024-03-23T07:45:41;10.55;;;6.85;;
36441;SDS011;73131;50.820;16.274;2024-03-23T07:48:51;11.43;;;6.72;;
36441;SDS011;73131;50.820;16.274;2024-03-23T07:51:52;11.82;;;7.28;;
36441;SDS011;73131;50.820;16.274;2024-03-23T07:54:53;9.90;;;6.90;;
36441;SDS011;73131;50.820;16.274;2024-03-23T07:57:54;11.80;;;6.70;;
36441;SDS011;73131;50.820;16.274;2024-03-23T08:01:03;12.05;;;7.10;;
36441;SDS011;73131;50.820;16.274;2024-03-23T08:04:05;11.38;;;6.88;;
36441;SDS011;73131;50.820;16.274;2024-03-23T08:07:09;11.65;;;7.05;;
36441;SDS011;73131;50.820;16.274;2024-03-23T08:10:10;10.68;;;6.72;;
36441;SDS011;73131;50.820;16.274;2024-03-23T08:13:13;10.20;;;6.80;;
36441;SDS011;73131;50.820;16.274;2024-03-23T08:16:14;9.60;;;6.05;;
36441;SDS011;73131;50.820;16.274;2024-03-23T08:19:15;11.48;;;6.53;;
36441;SDS011;73131;50.820;16.274;2024-03-23T08:22:18;13.50;;;6.95;;
36441;SDS011;73131;50.820;16.274;2024-03-23T08:25:20;11.80;;;6.78;;
36441;SDS011;73131;50.820;16.274;2024-03-23T08:28:23;10.90;;;6.55;;
36441;SDS011;73131;50.820;16.274;2024-03-23T08:31:24;10.55;;;6.75;;
36441;SDS011;73131;50.820;16.274;2024-03-23T08:34:25;9.52;;;5.88;;
36441;SDS011;73131;50.820;16.274;2024-03-23T08:37:26;7.93;;;5.32;;
36441;SDS011;73131;50.820;16.274;2024-03-23T08:40:29;9.68;;;6.25;;
36441;SDS011;73131;50.820;16.274;2024-03-23T08:43:34;7.45;;;5.47;;
36441;SDS011;73131;50.820;16.274;2024-03-23T08:46:36;10.32;;;6.10;;
36441;SDS011;73131;50.820;16.274;2024-03-23T08:49:39;9.65;;;6.53;;
36441;SDS011;73131;50.820;16.274;2024-03-23T08:52:40;9.27;;;6.07;;
36441;SDS011;73131;50.820;16.274;2024-03-23T08:55:44;9.77;;;6.30;;
36441;SDS011;73131;50.820;16.274;2024-03-23T08:58:53;12.55;;;7.18;;
36441;SDS011;73131;50.820;16.274;2024-03-23T09:01:55;10.82;;;7.40;;
36441;SDS011;73131;50.820;16.274;2024-03-23T09:04:56;7.95;;;6.32;;
36441;SDS011;73131;50.820;16.274;2024-03-23T09:08:04;8.98;;;6.70;;
36441;SDS011;73131;50.820;16.274;2024-03-23T09:11:09;10.18;;;7.82;;
36441;SDS011;73131;50.820;16.274;2024-03-23T09:14:15;10.50;;;7.80;;
36441;SDS011;73131;50.820;16.274;2024-03-23T09:17:18;9.20;;;7.82;;
36441;SDS011;73131;50.820;16.274;2024-03-23T09:20:19;8.10;;;6.80;;
36441;SDS011;73131;50.820;16.274;2024-03-23T09:23:23;6.53;;;5.90;;
36441;SDS011;73131;50.820;16.274;2024-03-23T09:26:24;7.32;;;6.63;;
36441;SDS011;73131;50.820;16.274;2024-03-23T09:29:25;6.85;;;6.05;;
36441;SDS011;73131;50.820;16.274;2024-03-23T09:32:26;6.72;;;6.03;;
36441;SDS011;73131;50.820;16.274;2024-03-23T09:35:29;6.82;;;6.22;;
36441;SDS011;73131;50.820;16.274;2024-03-23T09:38:30;7.25;;;6.13;;
36441;SDS011;73131;50.820;16.274;2024-03-23T09:41:31;8.43;;;6.72;;
36441;SDS011;73131;50.820;16.274;2024-03-23T09:44:32;9.18;;;6.50;;
36441;SDS011;73131;50.820;16.274;2024-03-23T09:47:37;8.43;;;7.00;;
36441;SDS011;73131;50.820;16.274;2024-03-23T09:50:41;7.82;;;6.68;;
36441;SDS011;73131;50.820;16.274;2024-03-23T09:53:46;8.43;;;6.00;;
36441;SDS011;73131;50.820;16.274;2024-03-23T09:56:50;8.10;;;6.20;;
36441;SDS011;73131;50.820;16.274;2024-03-23T09:59:51;8.20;;;6.13;;
36441;SDS011;73131;50.820;16.274;2024-03-23T10:02:54;7.55;;;6.30;;
36441;SDS011;73131;50.820;16.274;2024-03-23T10:06:02;7.22;;;5.32;;
36441;SDS011;73131;50.820;16.274;2024-03-23T10:09:12;6.78;;;5.60;;
36441;SDS011;73131;50.820;16.274;2024-03-23T10:12:19;7.93;;;5.50;;
36441;SDS011;73131;50.820;16.274;2024-03-23T10:15:23;6.47;;;5.05;;
36441;SDS011;73131;50.820;16.274;2024-03-23T10:18:29;7.30;;;5.50;;
36441;SDS011;73131;50.820;16.274;2024-03-23T10:21:37;7.88;;;6.47;;
36441;SDS011;73131;50.820;16.274;2024-03-23T10:24:38;6.72;;;6.05;;
36441;SDS011;73131;50.820;16.274;2024-03-23T10:27:44;9.95;;;6.30;;
36441;SDS011;73131;50.820;16.274;2024-03-23T10:31:04;6.97;;;5.75;;
36441;SDS011;73131;50.820;16.274;2024-03-23T10:34:15;7.60;;;6.15;;
36441;SDS011;73131;50.820;16.274;2024-03-23T10:37:16;7.13;;;5.57;;
36441;SDS011;73131;50.820;16.274;2024-03-23T10:40:20;7.82;;;6.20;;
36441;SDS011;73131;50.820;16.274;2024-03-23T10:43:24;7.90;;;6.40;;
36441;SDS011;73131;50.820;16.274;2024-03-23T10:46:26;8.85;;;6.53;;
36441;SDS011;73131;50.820;16.274;2024-03-23T10:49:28;8.30;;;6.63;;
36441;SDS011;73131;50.820;16.274;2024-03-23T10:55:34;8.88;;;5.95;;
36441;SDS011;73131;50.820;16.274;2024-03-23T10:58:41;8.30;;;6.45;;
36441;SDS011;73131;50.820;16.274;2024-03-23T11:01:59;6.60;;;5.10;;
36441;SDS011;73131;50.820;16.274;2024-03-23T11:08:32;6.57;;;5.88;;
36441;SDS011;73131;50.820;16.274;2024-03-23T11:11:35;7.88;;;6.20;;
36441;SDS011;73131;50.820;16.274;2024-03-23T11:14:36;9.52;;;6.30;;
36441;SDS011;73131;50.820;16.274;2024-03-23T11:17:39;6.15;;;5.55;;
36441;SDS011;73131;50.820;16.274;2024-03-23T11:20:42;7.72;;;6.82;;
36441;SDS011;73131;50.820;16.274;2024-03-23T11:23:45;7.22;;;5.30;;
36441;SDS011;73131;50.820;16.274;2024-03-23T11:26:49;8.02;;;5.32;;
36441;SDS011;73131;50.820;16.274;2024-03-23T11:29:52;7.88;;;5.50;;
36441;SDS011;73131;50.820;16.274;2024-03-23T11:33:09;7.65;;;6.03;;
36441;SDS011;73131;50.820;16.274;2024-03-23T11:36:18;5.53;;;4.18;;
36441;SDS011;73131;50.820;16.274;2024-03-23T11:39:20;5.72;;;4.35;;
36441;SDS011;73131;50.820;16.274;2024-03-23T11:42:23;4.80;;;3.05;;
36441;SDS011;73131;50.820;16.274;2024-03-23T11:45:24;5.00;;;2.63;;
36441;SDS011;73131;50.820;16.274;2024-03-23T11:48:25;3.58;;;2.25;;
36441;SDS011;73131;50.820;16.274;2024-03-23T11:51:28;3.70;;;2.90;;
36441;SDS011;73131;50.820;16.274;2024-03-23T11:54:35;7.47;;;2.75;;
36441;SDS011;73131;50.820;16.274;2024-03-23T11:57:36;3.60;;;2.63;;
36441;SDS011;73131;50.820;16.274;2024-03-23T12:00:37;4.63;;;2.90;;
36441;SDS011;73131;50.820;16.274;2024-03-23T12:03:38;4.95;;;3.13;;
36441;SDS011;73131;50.820;16.274;2024-03-23T12:06:44;5.30;;;3.85;;
36441;SDS011;73131;50.820;16.274;2024-03-23T12:10:02;5.88;;;4.43;;
36441;SDS011;73131;50.820;16.274;2024-03-23T12:13:04;7.82;;;4.72;;
36441;SDS011;73131;50.820;16.274;2024-03-23T12:16:20;6.32;;;4.38;;
36441;SDS011;73131;50.820;16.274;2024-03-23T12:19:21;5.53;;;4.15;;
36441;SDS011;73131;50.820;16.274;2024-03-23T12:22:23;5.72;;;3.85;;
36441;SDS011;73131;50.820;16.274;2024-03-23T12:25:26;5.82;;;4.13;;
36441;SDS011;73131;50.820;16.274;2024-03-23T12:28:30;6.93;;;4.07;;
36441;SDS011;73131;50.820;16.274;2024-03-23T12:31:32;3.75;;;2.95;;
36441;SDS011;73131;50.820;16.274;2024-03-23T12:34:35;3.85;;;3.00;;
36441;SDS011;73131;50.820;16.274;2024-03-23T12:37:41;4.60;;;3.10;;
36441;SDS011;73131;50.820;16.274;2024-03-23T12:40:49;4.53;;;3.03;;
36441;SDS011;73131;50.820;16.274;2024-03-23T12:43:53;4.85;;;3.08;;
36441;SDS011;73131;50.820;16.274;2024-03-23T12:46:54;4.00;;;2.97;;
36441;SDS011;73131;50.820;16.274;2024-03-23T12:49:57;4.45;;;2.90;;
36441;SDS011;73131;50.820;16.274;2024-03-23T12:52:58;4.07;;;2.35;;
36441;SDS011;73131;50.820;16.274;2024-03-23T12:56:01;5.65;;;2.97;;
36441;SDS011;73131;50.820;16.274;2024-03-23T12:59:03;4.72;;;2.35;;
36441;SDS011;73131;50.820;16.274;2024-03-23T13:02:05;4.55;;;2.60;;
36441;SDS011;73131;50.820;16.274;2024-03-23T13:05:07;5.88;;;3.47;;
36441;SDS011;73131;50.820;16.274;2024-03-23T13:08:14;6.03;;;3.42;;
36441;SDS011;73131;50.820;16.274;2024-03-23T13:11:15;5.13;;;3.15;;
36441;SDS011;73131;50.820;16.274;2024-03-23T13:14:21;4.72;;;3.00;;
36441;SDS011;73131;50.820;16.274;2024-03-23T13:17:23;5.38;;;2.80;;
36441;SDS011;73131;50.820;16.274;2024-03-23T13:20:26;6.18;;;2.97;;
36441;SDS011;73131;50.820;16.274;2024-03-23T13:23:30;3.95;;;1.98;;
36441;SDS011;73131;50.820;16.274;2024-03-23T13:26:36;3.10;;;1.80;;
36441;SDS011;73131;50.820;16.274;2024-03-23T13:29:39;2.10;;;1.10;;
36441;SDS011;73131;50.820;16.274;2024-03-23T13:32:42;2.20;;;0.93;;
36441;SDS011;73131;50.820;16.274;2024-03-23T13:35:52;4.32;;;1.33;;
36441;SDS011;73131;50.820;16.274;2024-03-23T13:38:54;1.88;;;0.93;;
36441;SDS011;73131;50.820;16.274;2024-03-23T13:41:55;1.58;;;0.95;;
36441;SDS011;73131;50.820;16.274;2024-03-23T13:44:56;1.23;;;0.63;;
36441;SDS011;73131;50.820;16.274;2024-03-23T13:47:57;1.45;;;0.60;;
36441;SDS011;73131;50.820;16.274;2024-03-23T13:51:01;2.05;;;0.93;;
36441;SDS011;73131;50.820;16.274;2024-03-23T13:54:08;2.55;;;1.00;;
36441;SDS011;73131;50.820;16.274;2024-03-23T13:57:09;2.05;;;0.52;;
36441;SDS011;73131;50.820;16.274;2024-03-23T14:00:11;2.15;;;0.80;;
36441;SDS011;73131;50.820;16.274;2024-03-23T14:03:13;0.88;;;0.47;;
36441;SDS011;73131;50.820;16.274;2024-03-23T14:06:14;0.57;;;0.50;;
36441;SDS011;73131;50.820;16.274;2024-03-23T14:09:15;0.98;;;0.60;;
36441;SDS011;73131;50.820;16.274;2024-03-23T14:12:21;1.95;;;0.68;;
36441;SDS011;73131;50.820;16.274;2024-03-23T14:15:23;1.15;;;0.80;;
36441;SDS011;73131;50.820;16.274;2024-03-23T14:18:25;1.05;;;0.68;;
36441;SDS011;73131;50.820;16.274;2024-03-23T14:21:29;1.60;;;1.10;;
36441;SDS011;73131;50.820;16.274;2024-03-23T14:24:32;3.13;;;1.27;;
36441;SDS011;73131;50.820;16.274;2024-03-23T14:27:33;1.63;;;0.82;;
36441;SDS011;73131;50.820;16.274;2024-03-23T14:30:39;1.25;;;0.70;;
36441;SDS011;73131;50.820;16.274;2024-03-23T14:33:44;1.17;;;0.70;;
36441;SDS011;73131;50.820;16.274;2024-03-23T14:36:49;1.48;;;0.80;;
36441;SDS011;73131;50.820;16.274;2024-03-23T14:39:49;1.42;;;0.60;;
36441;SDS011;73131;50.820;16.274;2024-03-23T14:42:51;0.70;;;0.32;;
36441;SDS011;73131;50.820;16.274;2024-03-23T14:46:07;1.45;;;0.88;;
36441;SDS011;73131;50.820;16.274;2024-03-23T14:49:09;1.00;;;0.50;;
36441;SDS011;73131;50.820;16.274;2024-03-23T14:52:17;0.88;;;0.47;;
36441;SDS011;73131;50.820;16.274;2024-03-23T14:55:19;1.05;;;0.60;;
36441;SDS011;73131;50.820;16.274;2024-03-23T14:58:20;0.63;;;0.50;;
36441;SDS011;73131;50.820;16.274;2024-03-23T15:01:21;0.60;;;0.40;;
36441;SDS011;73131;50.820;16.274;2024-03-23T15:04:22;4.93;;;1.30;;
36441;SDS011;73131;50.820;16.274;2024-03-23T15:07:23;1.00;;;0.30;;
36441;SDS011;73131;50.820;16.274;2024-03-23T15:10:24;0.70;;;0.40;;
36441;SDS011;73131;50.820;16.274;2024-03-23T15:13:28;0.90;;;0.40;;
36441;SDS011;73131;50.820;16.274;2024-03-23T15:16:29;0.50;;;0.35;;
36441;SDS011;73131;50.820;16.274;2024-03-23T15:19:30;1.23;;;0.60;;
36441;SDS011;73131;50.820;16.274;2024-03-23T15:22:32;1.35;;;0.52;;
36441;SDS011;73131;50.820;16.274;2024-03-23T15:25:33;1.45;;;0.40;;
36441;SDS011;73131;50.820;16.274;2024-03-23T15:28:39;1.33;;;0.40;;
36441;SDS011;73131;50.820;16.274;2024-03-23T15:31:58;1.58;;;0.77;;
36441;SDS011;73131;50.820;16.274;2024-03-23T15:34:59;1.35;;;0.40;;
36441;SDS011;73131;50.820;16.274;2024-03-23T15:38:05;0.93;;;0.40;;
36441;SDS011;73131;50.820;16.274;2024-03-23T15:41:06;1.30;;;0.50;;
36441;SDS011;73131;50.820;16.274;2024-03-23T15:44:08;0.55;;;0.50;;
36441;SDS011;73131;50.820;16.274;2024-03-23T15:47:09;0.43;;;0.30;;
36441;SDS011;73131;50.820;16.274;2024-03-23T15:50:11;1.15;;;0.40;;
36441;SDS011;73131;50.820;16.274;2024-03-23T15:53:12;0.50;;;0.22;;
36441;SDS011;73131;50.820;16.274;2024-03-23T15:56:13;1.13;;;0.57;;
36441;SDS011;73131;50.820;16.274;2024-03-23T15:59:16;2.08;;;0.82;;
36441;SDS011;73131;50.820;16.274;2024-03-23T16:02:18;2.10;;;0.70;;
36441;SDS011;73131;50.820;16.274;2024-03-23T16:05:18;1.10;;;0.68;;
36441;SDS011;73131;50.820;16.274;2024-03-23T16:08:20;1.45;;;0.50;;
36441;SDS011;73131;50.820;16.274;2024-03-23T16:11:21;1.35;;;0.57;;
36441;SDS011;73131;50.820;16.274;2024-03-23T16:14:22;1.50;;;0.68;;
36441;SDS011;73131;50.820;16.274;2024-03-23T16:17:25;1.77;;;0.80;;
36441;SDS011;73131;50.820;16.274;2024-03-23T16:20:29;1.90;;;0.70;;
36441;SDS011;73131;50.820;16.274;2024-03-23T16:23:34;1.83;;;0.98;;
36441;SDS011;73131;50.820;16.274;2024-03-23T16:26:38;1.85;;;0.73;;
36441;SDS011;73131;50.820;16.274;2024-03-23T16:29:41;2.70;;;1.20;;
36441;SDS011;73131;50.820;16.274;2024-03-23T16:32:42;2.60;;;1.30;;
36441;SDS011;73131;50.820;16.274;2024-03-23T16:35:43;1.85;;;1.10;;
36441;SDS011;73131;50.820;16.274;2024-03-23T16:38:45;3.15;;;1.60;;
36441;SDS011;73131;50.820;16.274;2024-03-23T16:41:49;3.63;;;1.80;;
36441;SDS011;73131;50.820;16.274;2024-03-23T16:44:51;3.22;;;1.50;;
36441;SDS011;73131;50.820;16.274;2024-03-23T16:47:51;2.55;;;1.50;;
36441;SDS011;73131;50.820;16.274;2024-03-23T16:50:53;3.03;;;1.20;;
36441;SDS011;73131;50.820;16.274;2024-03-23T16:53:58;2.72;;;1.30;;
36441;SDS011;73131;50.820;16.274;2024-03-23T16:57:02;2.83;;;1.67;;
36441;SDS011;73131;50.820;16.274;2024-03-23T17:00:03;2.55;;;1.33;;
36441;SDS011;73131;50.820;16.274;2024-03-23T17:03:05;2.58;;;1.40;;
36441;SDS011;73131;50.820;16.274;2024-03-23T17:06:06;3.00;;;1.38;;
36441;SDS011;73131;50.820;16.274;2024-03-23T17:09:11;2.03;;;0.93;;
36441;SDS011;73131;50.820;16.274;2024-03-23T17:12:14;3.33;;;1.25;;
36441;SDS011;73131;50.820;16.274;2024-03-23T17:15:15;2.15;;;1.10;;
36441;SDS011;73131;50.820;16.274;2024-03-23T17:18:21;3.28;;;1.52;;
36441;SDS011;73131;50.820;16.274;2024-03-23T17:21:24;2.75;;;1.20;;
36441;SDS011;73131;50.820;16.274;2024-03-23T17:24:27;1.55;;;1.10;;
36441;SDS011;73131;50.820;16.274;2024-03-23T17:27:28;2.53;;;0.93;;
36441;SDS011;73131;50.820;16.274;2024-03-23T17:30:31;1.73;;;0.90;;
36441;SDS011;73131;50.820;16.274;2024-03-23T17:33:32;2.53;;;0.93;;
36441;SDS011;73131;50.820;16.274;2024-03-23T17:36:33;2.20;;;1.30;;
36441;SDS011;73131;50.820;16.274;2024-03-23T17:39:39;2.42;;;1.35;;
36441;SDS011;73131;50.820;16.274;2024-03-23T17:42:42;3.45;;;1.65;;
36441;SDS011;73131;50.820;16.274;2024-03-23T17:45:43;2.22;;;1.40;;
36441;SDS011;73131;50.820;16.274;2024-03-23T17:48:44;2.42;;;1.50;;
36441;SDS011;73131;50.820;16.274;2024-03-23T17:51:45;2.78;;;1.52;;
36441;SDS011;73131;50.820;16.274;2024-03-23T17:54:47;3.67;;;1.73;;
36441;SDS011;73131;50.820;16.274;2024-03-23T17:57:49;3.30;;;1.80;;
36441;SDS011;73131;50.820;16.274;2024-03-23T18:00:50;3.25;;;1.73;;
36441;SDS011;73131;50.820;16.274;2024-03-23T18:03:56;2.47;;;1.42;;
36441;SDS011;73131;50.820;16.274;2024-03-23T18:06:57;2.78;;;1.40;;
36441;SDS011;73131;50.820;16.274;2024-03-23T18:10:00;3.20;;;1.42;;
36441;SDS011;73131;50.820;16.274;2024-03-23T18:13:06;2.83;;;1.88;;
36441;SDS011;73131;50.820;16.274;2024-03-23T18:16:09;4.85;;;2.08;;
36441;SDS011;73131;50.820;16.274;2024-03-23T18:19:13;4.72;;;2.17;;
36441;SDS011;73131;50.820;16.274;2024-03-23T18:22:16;3.80;;;1.85;;
36441;SDS011;73131;50.820;16.274;2024-03-23T18:25:17;5.55;;;2.38;;
36441;SDS011;73131;50.820;16.274;2024-03-23T18:28:18;4.13;;;2.10;;
36441;SDS011;73131;50.820;16.274;2024-03-23T18:31:19;6.13;;;2.00;;
36441;SDS011;73131;50.820;16.274;2024-03-23T18:34:23;5.50;;;2.00;;
36441;SDS011;73131;50.820;16.274;2024-03-23T18:37:29;3.97;;;2.10;;
36441;SDS011;73131;50.820;16.274;2024-03-23T18:40:29;4.25;;;1.80;;
36441;SDS011;73131;50.820;16.274;2024-03-23T18:43:34;4.38;;;2.08;;
36441;SDS011;73131;50.820;16.274;2024-03-23T18:46:36;4.30;;;2.05;;
36441;SDS011;73131;50.820;16.274;2024-03-23T18:49:37;3.40;;;1.38;;
36441;SDS011;73131;50.820;16.274;2024-03-23T18:52:37;4.90;;;1.95;;
36441;SDS011;73131;50.820;16.274;2024-03-23T18:55:42;4.18;;;1.63;;
36441;SDS011;73131;50.820;16.274;2024-03-23T18:58:55;4.43;;;1.80;;
36441;SDS011;73131;50.820;16.274;2024-03-23T19:01:56;2.13;;;1.48;;
36441;SDS011;73131;50.820;16.274;2024-03-23T19:04:57;4.50;;;1.63;;